Latest Weather Observations for Hillarys Point Boat Harbour

IDW60901

Issued at 6:01 pm WST Tuesday 26 January 2021 (issued every 10 minutes, with the page automatically refreshed every 10 minutes)

About weather observations | Map of Perth area stations | Latest observations for Perth area | Other Formats
Station Details ID: 009265 Name: HILLARYS BOAT HARBOUR NTC AWS Lat: -31.83 Lon: 115.74 Height: 0.0 m
Data from the previous 72 hours. | See also: Recent months for locations in Western Australia
Date/Time
WST
Temp
°C
App
Temp
°C
Dew
Point
°C
Rel
Hum
%
Delta-T
°C
Wind Press
QNH
hPa
Press
MSL
hPa
Rain since
9am
mm
Dir  Spd
km/h
Gust
km/h
Spd
kts
Gust
kts
26/06:00pm 21.8 - - - - SSW 22 39 12 21 1007.8 1007.7 -
26/05:30pm 21.8 - - - - SSW 22 35 12 19 1007.4 1007.3 -
26/05:00pm 22.2 - - - - SSW 22 39 12 21 1007.3 1007.2 -
26/04:30pm 22.1 - - - - SSW 22 41 12 22 1007.4 1007.3 -
26/04:00pm 22.3 - - - - SW 28 43 15 23 1007.4 1007.3 -
26/03:30pm 22.5 - - - - SSW 22 35 12 19 1007.4 1007.3 -
26/03:00pm 22.3 - - - - SW 20 35 11 19 1007.2 1007.1 -
26/02:30pm 22.4 - - - - SW 20 35 11 19 1007.4 1007.3 -
26/02:00pm 22.3 - - - - SW 22 32 12 17 1007.5 1007.4 -
26/01:30pm 21.9 - - - - SW 19 28 10 15 1007.6 1007.5 -
26/01:00pm 21.6 - - - - SW 13 20 7 11 1007.4 1007.3 -
26/12:30pm 21.9 - - - - SW 15 24 8 13 1007.8 1007.7 -
26/12:00pm 21.3 - - - - SW 19 28 10 15 1008.0 1007.9 -
26/11:30am 21.0 - - - - WSW 20 28 11 15 1008.4 1008.3 -
26/11:00am 20.9 - - - - WSW 15 20 8 11 1008.4 1008.3 -
26/10:30am 20.7 - - - - WSW 13 17 7 9 1008.4 1008.3 -
26/10:00am 20.6 - - - - WSW 9 13 5 7 1008.1 1008.0 -
26/09:30am 20.5 - - - - SW 7 11 4 6 1008.2 1008.1 -
26/09:00am 20.7 - - - - SSW 6 11 3 6 1008.3 1008.2 -
26/08:30am 20.7 - - - - E 6 11 3 6 1008.4 1008.3 -
26/08:00am 20.1 - - - - SSE 6 11 3 6 1008.8 1008.7 -
26/07:30am 19.6 - - - - ESE 6 13 3 7 1008.7 1008.6 -
26/07:00am 19.3 - - - - ESE 4 11 2 6 1008.4 1008.3 -
26/06:30am 19.0 - - - - SSE 2 7 1 4 1008.4 1008.3 -
26/06:00am 18.1 - - - - E 4 11 2 6 1008.1 1008.0 -
26/05:30am 18.2 - - - - E 6 13 3 7 1008.0 1007.9 -
26/05:00am 18.4 - - - - E 4 7 2 4 1007.7 1007.6 -
26/04:30am 18.9 - - - - E 4 11 2 6 1007.6 1007.5 -
26/04:00am 19.1 - - - - E 6 13 3 7 1007.5 1007.4 -
26/03:30am 19.1 - - - - E 4 9 2 5 1007.4 1007.3 -
26/03:00am 19.2 - - - - ESE 2 6 1 3 1007.5 1007.4 -
26/02:30am 19.4 - - - - E 4 9 2 5 1007.5 1007.4 -
26/02:00am 19.4 - - - - ENE 6 13 3 7 1007.6 1007.5 -
26/01:30am 20.1 - - - - E 4 13 2 7 1007.6 1007.5 -
26/01:00am 20.8 - - - - ESE 2 9 1 5 1007.6 1007.5 -
26/12:30am 21.8 - - - - S 7 15 4 8 1007.7 1007.6 -
26/12:00am 21.8 - - - - S 9 20 5 11 1008.1 1008.0 -
 
Date/Time
WST
Temp
°C
App
Temp
°C
Dew
Point
°C
Rel
Hum
%
Delta-T
°C
Wind Press
QNH
hPa
Press
MSL
hPa
Rain since
9am
mm
Dir  Spd
km/h
Gust
km/h
Spd
kts
Gust
kts
25/11:30pm 21.8 - - - - SSW 11 26 6 14 1008.3 1008.2 -
25/11:00pm 21.6 - - - - SSW 13 28 7 15 1008.4 1008.3 -
25/10:30pm 21.8 - - - - SSW 17 32 9 17 1008.7 1008.6 -
25/10:00pm 21.7 - - - - SSW 13 30 7 16 1008.9 1008.8 -
25/09:30pm 21.6 - - - - SSW 13 28 7 15 1009.1 1009.0 -
25/09:00pm 21.4 - - - - SSW 17 33 9 18 1009.1 1009.0 -
25/08:30pm 21.5 - - - - SSW 13 32 7 17 1008.8 1008.7 -
25/08:00pm 21.8 - - - - SSW 17 32 9 17 1008.6 1008.5 -
25/07:30pm 21.9 - - - - SSW 17 30 9 16 1008.4 1008.3 -
25/07:00pm 22.2 - - - - SSW 17 33 9 18 1008.3 1008.2 -
25/06:30pm 22.5 - - - - SSW 19 41 10 22 1008.3 1008.2 -
25/06:00pm 22.7 - - - - SSW 17 32 9 17 1008.1 1008.0 -
25/05:30pm 22.7 - - - - SSW 19 32 10 17 1008.2 1008.1 -
25/05:00pm 23.0 - - - - SSW 19 30 10 16 1008.0 1007.9 -
25/04:30pm 23.0 - - - - SSW 17 33 9 18 1008.2 1008.1 -
25/04:00pm 23.3 - - - - SW 19 28 10 15 1008.1 1008.0 -
25/03:30pm 23.1 - - - - SW 20 30 11 16 1008.2 1008.1 -
25/03:00pm 22.9 - - - - SW 19 30 10 16 1008.3 1008.2 -
25/02:30pm 22.9 - - - - SW 17 30 9 16 1008.6 1008.5 -
25/02:00pm 23.0 - - - - SW 19 30 10 16 1008.9 1008.8 -
25/01:30pm 23.1 - - - - SW 19 32 10 17 1009.1 1009.0 -
25/01:00pm 22.6 - - - - SW 19 28 10 15 1009.3 1009.2 -
25/12:30pm 22.2 - - - - SW 20 28 11 15 1009.5 1009.4 -
25/12:00pm 22.6 - - - - SW 17 26 9 14 1009.6 1009.5 -
25/11:30am 22.0 - - - - SW 19 26 10 14 1009.8 1009.7 -
25/11:00am 22.0 - - - - WSW 17 24 9 13 1009.9 1009.8 -
25/10:30am 22.5 - - - - SW 13 19 7 10 1010.0 1009.9 -
25/10:00am 22.3 - - - - SW 11 17 6 9 1010.0 1009.9 -
25/09:30am 22.5 - - - - SW 9 15 5 8 1010.2 1010.1 -
25/09:00am 21.7 - - - - SW 9 15 5 8 1010.3 1010.2 -
25/08:30am 21.8 - - - - S 7 13 4 7 1010.2 1010.1 -
25/08:00am 21.0 - - - - S 4 7 2 4 1010.3 1010.2 -
25/07:30am 20.6 - - - - SSE 4 7 2 4 1010.4 1010.3 -
25/07:00am 19.9 - - - - E 4 7 2 4 1010.0 1009.9 -
25/06:30am 19.6 - - - - E 4 9 2 5 1009.8 1009.7 -
25/06:00am 19.7 - - - - SE 4 11 2 6 1009.5 1009.4 -
25/05:30am 19.7 - - - - SE 7 19 4 10 1009.3 1009.2 -
25/05:00am 19.7 - - - - SE 6 15 3 8 1009.0 1008.9 -
25/04:30am 19.8 - - - - SE 6 17 3 9 1008.8 1008.7 -
25/04:00am 19.9 - - - - SE 7 17 4 9 1008.6 1008.5 -
25/03:30am 19.9 - - - - SSE 13 20 7 11 1008.4 1008.3 -
25/03:00am 20.0 - - - - SSE 13 24 7 13 1008.3 1008.2 -
25/02:30am 20.2 - - - - SSE 13 22 7 12 1008.3 1008.2 -
25/02:00am 20.7 - - - - SSE 11 20 6 11 1008.3 1008.2 -
25/01:30am 21.1 - - - - SSW 11 20 6 11 1008.2 1008.1 -
25/01:00am 21.3 - - - - SSW 15 30 8 16 1008.3 1008.2 -
25/12:30am 21.2 - - - - SSW 15 30 8 16 1008.4 1008.3 -
25/12:00am 21.2 - - - - SSW 15 33 8 18 1008.6 1008.5 -
 
Date/Time
WST
Temp
°C
App
Temp
°C
Dew
Point
°C
Rel
Hum
%
Delta-T
°C
Wind Press
QNH
hPa
Press
MSL
hPa
Rain since
9am
mm
Dir  Spd
km/h
Gust
km/h
Spd
kts
Gust
kts
24/11:30pm 21.4 - - - - SSW 11 28 6 15 1008.6 1008.5 -
24/11:00pm 21.4 - - - - SSW 13 28 7 15 1008.6 1008.5 -
24/10:30pm 21.5 - - - - SSW 13 28 7 15 1008.6 1008.5 -
24/10:00pm 21.6 - - - - SSW 17 32 9 17 1008.6 1008.5 -
24/09:30pm 21.7 - - - - SSW 17 30 9 16 1008.8 1008.7 -
24/09:00pm 21.8 - - - - SSW 17 28 9 15 1008.5 1008.4 -
24/08:30pm 21.8 - - - - SSW 15 32 8 17 1008.2 1008.1 -
24/08:00pm 21.8 - - - - SW 19 28 10 15 1008.1 1008.0 -
24/07:30pm 22.0 - - - - SSW 17 28 9 15 1007.9 1007.8 -
24/07:00pm 21.9 - - - - SSW 19 30 10 16 1007.6 1007.5 -
24/06:30pm 21.8 - - - - SW 22 33 12 18 1007.3 1007.2 -
24/06:00pm 22.0 - - - - SW 17 26 9 14 1007.0 1006.9 -
24/05:30pm 22.1 - - - - SW 19 30 10 16 1006.6 1006.5 -
24/05:00pm 22.5 - - - - SSW 15 28 8 15 1006.5 1006.4 -
24/04:30pm 22.8 - - - - SW 17 28 9 15 1006.5 1006.4 -
24/04:00pm 22.9 - - - - SSW 15 26 8 14 1006.5 1006.4 -
24/03:30pm 22.9 - - - - SSW 15 28 8 15 1006.4 1006.3 -
24/03:00pm 22.8 - - - - SW 15 28 8 15 1006.6 1006.5 -
24/02:30pm 23.0 - - - - SSW 11 24 6 13 1006.7 1006.6 -
24/02:00pm 22.5 - - - - SSW 15 24 8 13 1006.7 1006.6 -
24/01:30pm 22.1 - - - - SW 20 32 11 17 1006.9 1006.8 -
24/01:00pm 22.6 - - - - SSW 17 28 9 15 1007.1 1007.0 -
24/12:30pm 22.7 - - - - SW 19 32 10 17 1007.1 1007.0 -
24/12:00pm 22.5 - - - - SW 24 37 13 20 1006.9 1006.8 -
24/11:30am 22.5 - - - - SW 22 43 12 23 1007.0 1006.9 -
24/11:00am 22.8 - - - - WSW 6 11 3 6 1007.0 1006.9 -
24/10:30am 23.1 - - - - SSW 4 7 2 4 1007.0 1006.9 -
24/10:00am 23.0 - - - - SSW 6 9 3 5 1007.0 1006.9 -
24/09:30am 22.5 - - - - S 4 7 2 4 1007.0 1006.9 -
24/09:00am 22.1 - - - - S 2 6 1 3 1007.1 1007.0 -
24/08:30am 21.5 - - - - SSE 2 6 1 3 1007.2 1007.1 -
24/08:00am 21.3 - - - - WSW 2 6 1 3 1007.1 1007.0 -
24/07:30am 21.5 - - - - NNE 2 6 1 3 1006.9 1006.8 -
24/07:00am 20.2 - - - - ENE 7 11 4 6 1006.6 1006.5 -
24/06:30am 19.8 - - - - ENE 6 11 3 6 1006.4 1006.3 -
24/06:00am 19.2 - - - - ENE 6 7 3 4 1006.1 1006.0 -
24/05:30am 19.1 - - - - ENE 6 11 3 6 1005.8 1005.7 -
24/05:00am 19.2 - - - - NE 4 7 2 4 1005.6 1005.5 -
24/04:30am 19.6 - - - - ENE 6 9 3 5 1005.1 1005.0 -
24/04:00am 19.9 - - - - E 4 7 2 4 1004.9 1004.8 -
24/03:30am 20.2 - - - - ESE 4 11 2 6 1004.9 1004.8 -
24/03:00am 21.3 - - - - SSW 11 20 6 11 1004.6 1004.5 -
24/02:30am 21.3 - - - - SSW 13 24 7 13 1004.5 1004.4 -
24/02:00am 21.1 - - - - SSW 11 24 6 13 1004.4 1004.3 -
24/01:30am 21.1 - - - - SSW 13 20 7 11 1004.7 1004.6 -
24/01:00am 21.1 - - - - SW 15 24 8 13 1004.9 1004.8 -
24/12:30am 21.1 - - - - SW 13 24 7 13 1005.2 1005.1 -
24/12:00am 21.2 - - - - SW 17 28 9 15 1005.4 1005.3 -
 
Date/Time
WST
Temp
°C
App
Temp
°C
Dew
Point
°C
Rel
Hum
%
Delta-T
°C
Wind Press
QNH
hPa
Press
MSL
hPa
Rain since
9am
mm
Dir  Spd
km/h
Gust
km/h
Spd
kts
Gust
kts
23/11:30pm 21.3 - - - - SW 13 20 7 11 1005.5 1005.4 -
23/11:00pm 21.3 - - - - SW 15 24 8 13 1005.6 1005.5 -
23/10:30pm 21.2 - - - - SW 17 24 9 13 1005.8 1005.7 -
23/10:00pm 21.4 - - - - SW 17 26 9 14 1005.9 1005.8 -
23/09:30pm 21.4 - - - - SW 19 28 10 15 1005.7 1005.6 -
23/09:00pm 21.4 - - - - SW 17 24 9 13 1005.5 1005.4 -
23/08:30pm 21.6 - - - - WSW 19 28 10 15 1005.1 1005.0 -
23/08:00pm 21.8 - - - - SW 17 28 9 15 1004.8 1004.7 -
23/07:30pm 21.8 - - - - SW 19 30 10 16 1004.5 1004.4 -
23/07:00pm 21.9 - - - - SW 17 26 9 14 1004.4 1004.3 -
23/06:30pm 22.0 - - - - SW 17 26 9 14 1004.0 1003.9 -

Latest Capital City Observations: Canberra | Sydney | Melbourne | Brisbane | Adelaide | Perth | Hobart | Darwin

Other formats

Comma delimited format used in spreadsheet applications
http://www.bom.gov.au/fwo/IDW60901/IDW60901.95605.axf

JavaScript Object Notation format (JSON) in row-major order
http://www.bom.gov.au/fwo/IDW60901/IDW60901.95605.json

Data quality

Most of these data are generated automatically and are frequently updated. Quality checks on data are not normally performed. It is possible for incorrect values to appear. Refer to information at About Latest Weather Observations and please check the disclaimer before using these data.